Time;durP1;ratioP1;P1;durP2;ratioP2;P2;SDS_P1;SDS_P2;PMS_P1;PMS_P2;Temp;Humidity;BMP_temperature;BMP_pressure;BME280_temperature;BME280_humidity;BME280_pressure;Samples;Min_cycle;Max_cycle;Signal;HPM_P1;HPM_P2
2022/05/26 00:00:53;;;;;;;6.10;5.90;;;;;;;15.99;67.03;100403.78;5034724;28;20037;-62
2022/05/26 00:03:19;;;;;;;6.10;5.90;;;;;;;16.04;66.57;100406.66;5033772;28;20022;-63
2022/05/26 00:05:45;;;;;;;6.18;5.97;;;;;;;16.06;66.49;100401.09;5032837;28;20035;-63
2022/05/26 00:08:11;;;;;;;6.03;5.82;;;;;;;16.07;66.70;100405.41;5033397;28;20052;-63
2022/05/26 00:10:36;;;;;;;6.28;6.00;;;;;;;15.99;67.25;100404.59;5033495;28;20531;-62
2022/05/26 00:13:02;;;;;;;6.10;5.90;;;;;;;15.95;67.83;100407.94;5032882;28;20029;-63
2022/05/26 00:15:30;;;;;;;6.13;5.93;;;;;;;15.91;67.40;100410.19;5033395;28;20314;-64
2022/05/26 00:17:55;;;;;;;6.20;6.00;;;;;;;15.80;67.90;100399.38;5032042;28;20087;-63
2022/05/26 00:20:21;;;;;;;6.00;5.80;;;;;;;15.71;68.36;100402.25;5033348;28;20049;-63
2022/05/26 00:22:46;;;;;;;6.40;6.10;;;;;;;15.66;68.62;100404.75;5032667;28;20034;-62
2022/05/26 00:25:12;;;;;;;6.18;5.97;;;;;;;15.67;68.25;100402.91;5033392;28;20033;-62
2022/05/26 00:27:37;;;;;;;6.35;6.05;;;;;;;15.74;68.01;100404.50;5033380;28;20056;-63
2022/05/26 00:30:03;;;;;;;5.97;5.78;;;;;;;15.58;68.96;100396.94;5033252;28;20017;-62
2022/05/26 00:32:29;;;;;;;6.18;5.97;;;;;;;15.68;68.66;100402.69;5030701;28;20017;-63
2022/05/26 00:34:54;;;;;;;6.30;6.00;;;;;;;15.75;68.38;100416.03;5036911;28;20114;-63
2022/05/26 00:37:20;;;;;;;6.00;5.80;;;;;;;15.58;68.83;100412.16;5033018;28;20041;-63
2022/05/26 00:39:46;;;;;;;6.40;6.10;;;;;;;15.32;70.12;100397.81;5033190;28;20030;-63
2022/05/26 00:42:11;;;;;;;6.10;5.90;;;;;;;15.39;70.40;100413.84;5019584;28;20033;-64
2022/05/26 00:44:37;;;;;;;6.80;6.50;;;;;;;15.48;69.84;100418.75;5031586;28;20045;-62
2022/05/26 00:47:02;;;;;;;6.10;5.90;;;;;;;15.52;69.38;100419.16;5032636;28;20477;-64
2022/05/26 00:49:40;;;;;;;6.70;6.40;;;;;;;15.67;68.62;100419.75;5032201;28;20057;-62
2022/05/26 00:52:09;;;;;;;6.13;5.93;;;;;;;15.59;69.27;100424.50;5041982;28;20048;-63
2022/05/26 00:54:34;;;;;;;6.18;5.97;;;;;;;15.45;70.04;100418.34;5036637;28;20028;-62
2022/05/26 00:57:08;;;;;;;6.20;5.95;;;;;;;15.50;69.76;100415.88;5032563;28;20029;-63
2022/05/26 00:59:51;;;;;;;6.07;5.88;;;;;;;15.54;69.37;100406.41;5032689;28;20026;-63
2022/05/26 01:02:21;;;;;;;6.10;5.90;;;;;;;15.57;69.82;100407.81;5032595;28;20021;-64
2022/05/26 01:04:51;;;;;;;6.00;5.80;;;;;;;15.59;69.77;100403.91;5030291;28;20052;-64
2022/05/26 01:07:23;;;;;;;6.13;5.93;;;;;;;15.52;69.98;100396.94;5032532;28;20025;-62
2022/05/26 01:09:48;;;;;;;6.10;5.90;;;;;;;15.14;71.71;100392.31;5034074;28;20021;-63
2022/05/26 01:12:14;;;;;;;6.10;5.90;;;;;;;15.39;71.19;100395.13;5032222;28;20104;-63
2022/05/26 01:14:48;;;;;;;6.80;6.50;;;;;;;15.25;71.53;100398.84;5032498;28;20044;-64
2022/05/26 01:17:32;;;;;;;;;;;;;;;15.33;71.28;100395.97;5032109;28;20029;-63
2022/05/26 01:20:24;;;;;;;6.35;6.05;;;;;;;15.13;72.58;100387.97;5031213;28;20418;-64
2022/05/26 01:23:07;;;;;;;6.10;5.90;;;;;;;15.10;72.48;100399.06;5029353;28;20405;-63
2022/05/26 01:25:54;;;;;;;6.20;5.97;;;;;;;15.12;72.67;100408.53;5019884;28;20163;-63
2022/05/26 01:28:47;;;;;;;6.10;5.90;;;;;;;15.12;73.11;100402.34;5032203;28;20025;-63
2022/05/26 01:31:33;;;;;;;6.00;5.80;;;;;;;14.96;73.93;100403.59;5047267;28;20037;-63
2022/05/26 01:34:38;;;;;;;6.10;5.90;;;;;;;15.00;73.83;100402.19;5030566;28;20029;-63
2022/05/26 01:37:21;;;;;;;6.30;6.00;;;;;;;15.25;72.76;100420.22;5031795;28;20083;-61
2022/05/26 01:39:51;;;;;;;6.13;5.93;;;;;;;15.27;72.75;100437.69;5031432;28;20120;-61
2022/05/26 01:42:26;;;;;;;5.93;5.72;;;;;;;15.13;73.55;100436.91;5021976;28;20033;-62
2022/05/26 01:45:05;;;;;;;6.20;5.97;;;;;;;15.12;74.03;100421.06;5031965;28;20054;-63
2022/05/26 01:48:09;;;;;;;6.00;5.80;;;;;;;15.00;75.14;100423.56;5019508;28;20040;-63
2022/05/26 01:50:53;;;;;;;6.03;5.82;;;;;;;15.12;74.72;100427.22;5030879;28;20053;-63
2022/05/26 01:53:32;;;;;;;5.95;5.75;;;;;;;15.23;74.70;100431.13;5031877;28;20547;-63
2022/05/26 01:56:25;;;;;;;6.40;6.10;;;;;;;15.01;75.77;100424.38;5031215;28;20041;-63
2022/05/26 01:59:33;;;;;;;5.82;5.63;;;;;;;15.05;75.60;100417.56;5031805;28;20060;-63
2022/05/26 02:02:18;;;;;;;6.10;5.90;;;;;;;15.28;74.46;100435.88;5011787;28;20559;-63
2022/05/26 02:04:48;;;;;;;6.32;6.03;;;;;;;15.32;74.43;100429.06;5030865;28;20076;-63
2022/05/26 02:07:21;;;;;;;6.00;5.80;;;;;;;15.00;76.37;100439.56;5031814;28;20036;-63
2022/05/26 02:09:49;;;;;;;5.90;5.70;;;;;;;14.89;76.75;100445.53;5018754;28;20036;-63
2022/05/26 02:12:26;;;;;;;5.95;5.75;;;;;;;14.71;78.11;100448.81;5025409;28;20026;-63
2022/05/26 02:15:04;;;;;;;6.07;5.88;;;;;;;14.87;77.31;100464.44;5031410;28;20416;-63
2022/05/26 02:17:51;;;;;;;6.03;5.82;;;;;;;15.05;76.14;100457.66;5031603;28;20037;-62
2022/05/26 02:20:20;;;;;;;5.90;5.70;;;;;;;15.06;76.16;100454.78;5031264;28;20043;-62
2022/05/26 02:22:59;;;;;;;6.18;5.97;;;;;;;14.85;77.35;100477.16;5031425;28;20029;-62
2022/05/26 02:25:27;;;;;;;6.03;5.82;;;;;;;15.08;76.10;100479.44;5030150;28;20025;-63
2022/05/26 02:27:55;;;;;;;6.05;5.85;;;;;;;14.47;79.41;100486.72;5034486;28;20568;-63
2022/05/26 02:30:25;;;;;;;6.00;5.80;;;;;;;14.46;80.24;100496.59;5031537;28;20480;-63
2022/05/26 02:32:53;;;;;;;6.10;5.90;;;;;;;14.94;77.55;100496.50;5030741;28;20075;-63
2022/05/26 02:35:32;;;;;;;5.93;5.72;;;;;;;15.07;76.71;100506.38;5038273;28;20021;-63
2022/05/26 02:38:23;;;;;;;6.32;6.03;;;;;;;15.20;75.72;100509.88;5035361;28;20393;-62
2022/05/26 02:40:51;;;;;;;5.85;5.65;;;;;;;15.25;75.85;100511.09;5038267;28;20396;-63
2022/05/26 02:43:24;;;;;;;6.10;5.90;;;;;;;15.19;76.33;100521.56;5035148;28;20558;-64
2022/05/26 02:46:05;;;;;;;5.90;5.70;;;;;;;15.19;76.27;100544.78;5034634;28;20136;-63
2022/05/26 02:49:04;;;;;;;6.05;5.85;;;;;;;15.12;76.78;100555.47;5015563;28;20052;-63
2022/05/26 02:51:37;;;;;;;6.28;6.00;;;;;;;15.17;76.98;100555.69;5034031;28;20072;-63
2022/05/26 02:54:26;;;;;;;6.32;6.03;;;;;;;15.31;77.00;100548.53;5035092;28;20024;-62
2022/05/26 02:57:11;;;;;;;6.32;6.03;;;;;;;15.31;78.47;100569.09;5024295;28;20041;-63
2022/05/26 02:59:55;;;;;;;5.88;5.68;;;;;;;15.45;79.44;100568.06;5034432;28;20049;-62
2022/05/26 03:02:50;;;;;;;5.88;5.68;;;;;;;15.45;80.52;100568.06;5034641;28;20037;-62
2022/05/26 03:05:30;;;;;;;6.00;5.80;;;;;;;15.58;81.74;100576.09;5033880;28;20473;-62
2022/05/26 03:08:00;;;;;;;6.00;5.80;;;;;;;15.60;82.39;100583.91;5035226;28;20037;-63
2022/05/26 03:10:28;;;;;;;6.10;5.90;;;;;;;15.66;81.64;100561.72;5034720;28;20109;-62
2022/05/26 03:12:56;;;;;;;6.10;5.90;;;;;;;15.70;81.24;100565.59;5033327;28;20485;-62
2022/05/26 03:15:22;;;;;;;5.90;5.70;;;;;;;15.68;82.54;100568.50;5034462;28;20029;-63
2022/05/26 03:17:47;;;;;;;5.95;5.75;;;;;;;15.78;82.76;100560.03;5034590;28;20033;-63
2022/05/26 03:20:13;;;;;;;6.30;6.00;;;;;;;15.72;84.50;100566.25;5034429;28;20102;-63
2022/05/26 03:22:38;;;;;;;6.43;6.13;;;;;;;15.80;86.17;100571.38;5033223;28;20036;-63
2022/05/26 03:25:06;;;;;;;6.10;5.90;;;;;;;15.80;87.11;100557.19;5035363;28;20033;-62
2022/05/26 03:27:31;;;;;;;6.10;5.90;;;;;;;15.87;87.02;100563.34;5034333;28;20100;-61
2022/05/26 03:29:57;;;;;;;6.10;5.90;;;;;;;15.77;90.25;100560.25;5034288;28;20105;-62
2022/05/26 03:32:23;;;;;;;6.32;6.03;;;;;;;15.73;90.52;100552.66;5033828;28;20036;-62
2022/05/26 03:43:01;;;;;;;6.78;6.47;;;;;;;15.82;92.90;100584.53;5031474;28;20103;-63
2022/05/26 03:45:28;;;;;;;7.20;6.90;;;;;;;15.77;95.42;100598.50;5032495;28;20448;-64
2022/05/26 03:47:54;;;;;;;6.60;6.30;;;;;;;15.64;97.41;100588.66;5032167;28;20074;-63
2022/05/26 03:50:19;;;;;;;6.50;6.20;;;;;;;15.53;100.00;100607.97;5033638;28;20823;-63
2022/05/26 03:52:45;;;;;;;6.50;6.20;;;;;;;15.66;100.00;100631.25;5021747;28;20458;-63
2022/05/26 03:55:10;;;;;;;6.05;5.85;;;;;;;15.69;100.00;100623.63;5033571;28;20416;-64
2022/05/26 03:57:36;;;;;;;6.25;6.00;;;;;;;15.75;100.00;100632.69;5032481;28;20025;-64
2022/05/26 04:00:03;;;;;;;6.45;6.15;;;;;;;15.83;100.00;100639.66;5032734;28;20029;-63
2022/05/26 04:02:29;;;;;;;6.40;6.10;;;;;;;15.81;100.00;100641.75;5020835;28;20021;-63
2022/05/26 04:04:54;;;;;;;6.30;6.00;;;;;;;15.86;100.00;100641.91;5033524;28;20078;-63
2022/05/26 04:07:20;;;;;;;6.32;6.03;;;;;;;15.98;100.00;100646.44;5033522;28;20105;-61
2022/05/26 04:09:45;;;;;;;6.32;6.05;;;;;;;16.03;100.00;100643.97;5033382;28;20021;-62
2022/05/26 04:12:12;;;;;;;6.45;6.15;;;;;;;16.07;100.00;100646.22;5022302;28;20048;-62
2022/05/26 04:14:38;;;;;;;6.40;6.10;;;;;;;16.12;100.00;100649.94;5031058;28;20025;-63
2022/05/26 04:17:04;;;;;;;6.82;6.53;;;;;;;16.17;100.00;100642.13;5037252;28;20076;-64
2022/05/26 04:19:30;;;;;;;6.70;6.40;;;;;;;16.24;100.00;100645.59;5030017;28;20037;-63
2022/05/26 04:24:39;;;;;;;6.25;6.00;;;;;;;16.40;100.00;100643.50;5033306;28;20535;-63
2022/05/26 04:27:05;;;;;;;6.88;6.57;;;;;;;16.50;100.00;100646.56;5032990;28;20064;-62
2022/05/26 04:29:31;;;;;;;6.20;6.00;;;;;;;16.48;100.00;100648.63;5032432;28;20033;-63
2022/05/26 04:31:57;;;;;;;6.45;6.15;;;;;;;16.53;100.00;100651.50;5031509;28;20090;-62
2022/05/26 04:34:22;;;;;;;6.45;6.15;;;;;;;16.59;100.00;100647.97;5033358;28;20025;-63
2022/05/26 04:36:48;;;;;;;7.22;6.93;;;;;;;16.58;100.00;100643.66;5031756;28;20033;-62
2022/05/26 04:39:14;;;;;;;7.13;6.82;;;;;;;16.62;100.00;100649.44;5032361;28;20030;-62
2022/05/26 04:41:41;;;;;;;6.85;6.55;;;;;;;16.71;100.00;100646.31;5032165;28;20062;-63
2022/05/26 04:44:07;;;;;;;6.68;6.38;;;;;;;16.78;100.00;100649.81;5032227;28;20033;-63
2022/05/26 04:46:33;;;;;;;7.00;6.70;;;;;;;16.74;100.00;100648.56;5032499;28;20045;-64
2022/05/26 04:48:58;;;;;;;7.13;6.82;;;;;;;16.72;100.00;100649.81;5031468;28;20133;-63
2022/05/26 04:51:24;;;;;;;6.47;6.18;;;;;;;16.68;100.00;100633.34;5032148;28;20033;-63
2022/05/26 04:53:49;;;;;;;7.18;6.88;;;;;;;16.66;100.00;100624.66;5031412;28;20536;-62
2022/05/26 04:56:15;;;;;;;7.10;6.80;;;;;;;16.77;100.00;100637.44;5032254;28;20029;-63
2022/05/26 04:58:41;;;;;;;6.60;6.30;;;;;;;16.81;100.00;100630.59;5032250;28;20370;-64
2022/05/26 05:01:17;;;;;;;6.50;6.20;;;;;;;16.83;100.00;100643.81;5030684;28;20436;-64
2022/05/26 05:03:44;;;;;;;6.70;6.40;;;;;;;16.72;100.00;100636.44;5028826;28;20511;-64
2022/05/26 05:06:10;;;;;;;6.50;6.20;;;;;;;16.69;100.00;100635.00;5023772;28;20135;-63
2022/05/26 05:08:36;;;;;;;6.70;6.40;;;;;;;16.81;100.00;100644.00;5031414;28;20112;-64
2022/05/26 05:11:02;;;;;;;6.85;6.55;;;;;;;16.67;100.00;100642.41;5031796;28;20481;-61
2022/05/26 05:13:28;;;;;;;6.55;6.25;;;;;;;16.80;100.00;100642.38;5031933;28;20033;-61
2022/05/26 05:16:00;;;;;;;6.57;6.28;;;;;;;16.89;100.00;100639.44;5029361;28;20028;-61
2022/05/26 05:18:26;;;;;;;6.28;6.05;;;;;;;16.86;100.00;100646.06;5028741;28;20025;-61
2022/05/26 05:20:53;;;;;;;6.60;6.30;;;;;;;16.76;100.00;100635.81;5030463;28;20040;-62
2022/05/26 05:23:19;;;;;;;6.68;6.38;;;;;;;16.95;100.00;100649.31;5034658;28;20147;-61
2022/05/26 05:25:48;;;;;;;6.40;6.10;;;;;;;16.72;100.00;100647.97;5033290;28;20901;-60
2022/05/26 05:28:21;;;;;;;6.70;6.40;;;;;;;16.76;100.00;100648.38;5031104;28;20106;-62
2022/05/26 05:30:50;;;;;;;6.70;6.40;;;;;;;16.75;100.00;100657.44;5028975;28;20081;-62
2022/05/26 05:33:21;;;;;;;6.97;6.68;;;;;;;16.71;100.00;100656.22;5024203;28;20572;-62
2022/05/26 05:36:02;;;;;;;6.80;6.50;;;;;;;16.72;100.00;100663.22;5032739;28;20038;-61
2022/05/26 05:38:28;;;;;;;6.70;6.40;;;;;;;16.65;100.00;100665.88;5027308;28;20399;-62
2022/05/26 05:40:54;;;;;;;6.75;6.45;;;;;;;16.64;100.00;100666.09;5034079;28;20022;-61
2022/05/26 05:43:19;;;;;;;6.15;5.95;;;;;;;16.73;100.00;100673.72;5039322;28;20104;-61
2022/05/26 05:45:45;;;;;;;6.85;6.55;;;;;;;16.69;100.00;100683.22;5029479;28;20041;-61
2022/05/26 05:48:11;;;;;;;6.53;6.22;;;;;;;16.58;100.00;100681.16;5029904;28;20366;-61
2022/05/26 05:50:36;;;;;;;6.75;6.45;;;;;;;16.46;100.00;100691.69;5030010;28;20027;-61
2022/05/26 05:53:02;;;;;;;6.55;6.25;;;;;;;16.57;100.00;100690.22;5030593;28;20449;-60
2022/05/26 05:55:30;;;;;;;6.50;6.20;;;;;;;16.70;100.00;100703.63;5030162;28;20485;-60
2022/05/26 05:57:55;;;;;;;6.60;6.30;;;;;;;16.61;100.00;100701.34;5031416;28;20033;-61
2022/05/26 06:00:21;;;;;;;7.05;6.75;;;;;;;16.60;100.00;100700.53;5030556;28;20107;-62
2022/05/26 06:02:46;;;;;;;6.88;6.57;;;;;;;16.52;100.00;100711.44;5030184;28;20025;-60
2022/05/26 06:05:12;;;;;;;6.60;6.30;;;;;;;16.38;100.00;100712.50;5020620;28;20053;-60
2022/05/26 06:07:40;;;;;;;6.60;6.30;;;;;;;16.30;100.00;100711.72;5035505;28;20473;-60
2022/05/26 06:10:11;;;;;;;6.70;6.40;;;;;;;16.38;100.00;100733.91;5034832;28;20098;-61
2022/05/26 06:12:38;;;;;;;6.70;6.40;;;;;;;16.56;100.00;100742.13;5039661;28;20116;-61
2022/05/26 06:15:05;;;;;;;6.65;6.35;;;;;;;16.72;100.00;100731.00;5043277;28;20484;-62
2022/05/26 06:17:30;;;;;;;6.60;6.30;;;;;;;16.85;100.00;100735.50;5032721;28;20033;-60
2022/05/26 06:19:56;;;;;;;6.70;6.40;;;;;;;16.78;100.00;100727.50;5036693;28;20512;-62
2022/05/26 06:22:22;;;;;;;6.20;5.97;;;;;;;16.62;100.00;100732.47;5037117;28;20025;-61
2022/05/26 06:24:49;;;;;;;6.75;6.45;;;;;;;16.58;100.00;100740.88;5036256;28;20033;-61
2022/05/26 06:30:10;;;;;;;7.15;6.85;;;;;;;16.78;100.00;100754.28;5040255;28;20032;-68
2022/05/26 06:38:16;;;;;;;7.07;6.78;;;;;;;16.65;100.00;100756.13;5033998;28;20087;-69
2022/05/26 06:40:42;;;;;;;7.63;7.32;;;;;;;16.77;100.00;100771.41;5032416;28;20021;-69
2022/05/26 06:43:08;;;;;;;7.18;6.88;;;;;;;16.67;100.00;100764.78;5033594;28;20111;-68
2022/05/26 06:45:35;;;;;;;6.75;6.45;;;;;;;16.48;100.00;100769.97;5033780;28;20197;-68
2022/05/26 06:48:00;;;;;;;6.65;6.35;;;;;;;16.58;100.00;100777.56;5023236;28;20048;-68
2022/05/26 06:50:26;;;;;;;7.20;6.90;;;;;;;16.52;100.00;100789.91;5028896;28;20076;-67
2022/05/26 06:52:51;;;;;;;7.20;6.90;;;;;;;16.54;100.00;100781.72;5030134;28;20022;-68
2022/05/26 06:55:18;;;;;;;6.93;6.63;;;;;;;16.58;100.00;100799.00;5018489;28;20049;-68
2022/05/26 06:57:44;;;;;;;7.13;6.82;;;;;;;16.55;100.00;100792.22;5031042;28;20026;-68
2022/05/26 07:00:12;;;;;;;6.95;6.65;;;;;;;16.65;100.00;100796.31;5033217;28;20125;-68
2022/05/26 07:02:38;;;;;;;7.13;6.82;;;;;;;16.65;100.00;100801.66;5032126;28;20053;-66
2022/05/26 07:05:04;;;;;;;6.85;6.55;;;;;;;16.80;100.00;100811.16;5034309;28;20049;-66
2022/05/26 07:07:32;;;;;;;7.07;6.78;;;;;;;16.70;100.00;100821.47;5032307;28;20159;-67
2022/05/26 07:09:58;;;;;;;7.05;6.75;;;;;;;17.12;100.00;100828.22;5020403;28;20026;-67
2022/05/26 07:12:24;;;;;;;7.18;6.88;;;;;;;17.28;100.00;100820.75;5036639;28;20583;-67
2022/05/26 07:14:49;;;;;;;7.22;6.88;;;;;;;17.43;99.23;100831.22;5029735;28;20433;-66
2022/05/26 07:17:15;;;;;;;6.90;6.60;;;;;;;17.38;99.27;100831.84;5037423;28;20124;-66
2022/05/26 07:19:42;;;;;;;6.57;6.28;;;;;;;17.19;99.56;100832.75;5030141;28;20056;-67
2022/05/26 07:22:08;;;;;;;7.00;6.70;;;;;;;17.10;100.00;100845.53;5028848;28;20506;-67
2022/05/26 07:24:34;;;;;;;7.10;6.80;;;;;;;16.96;99.33;100835.88;5029004;28;20171;-66
2022/05/26 07:27:00;;;;;;;6.60;6.30;;;;;;;17.10;98.89;100841.00;5030678;28;20484;-66
2022/05/26 07:29:27;;;;;;;6.90;6.60;;;;;;;17.19;99.94;100849.66;5028264;28;20029;-67
2022/05/26 07:31:52;;;;;;;6.95;6.65;;;;;;;17.20;99.27;100853.97;5028499;28;20083;-68
2022/05/26 07:34:18;;;;;;;6.97;6.68;;;;;;;17.07;98.98;100851.31;5025949;28;20029;-68
2022/05/26 07:42:17;;;;;;;7.45;7.15;;;;;;;18.13;93.10;100849.03;5030224;28;20032;-65
2022/05/26 07:44:45;;;;;;;7.25;6.95;;;;;;;17.96;92.99;100847.91;5044857;28;20459;-68
2022/05/26 07:47:11;;;;;;;7.05;6.75;;;;;;;17.57;94.33;100860.47;5031838;28;20034;-67
2022/05/26 07:49:41;;;;;;;7.10;6.80;;;;;;;18.10;92.96;100854.84;5045246;28;20033;-68
2022/05/26 07:52:07;;;;;;;6.75;6.45;;;;;;;17.99;93.25;100863.56;5031361;28;20067;-66
2022/05/26 07:54:32;;;;;;;6.90;6.60;;;;;;;17.89;92.85;100864.03;5027639;28;20024;-66
2022/05/26 07:56:59;;;;;;;7.05;6.75;;;;;;;18.12;92.65;100874.25;5029006;28;20388;-66
2022/05/26 07:59:25;;;;;;;7.15;6.85;;;;;;;18.06;92.46;100863.53;5028279;28;20017;-69
2022/05/26 08:01:51;;;;;;;7.15;6.85;;;;;;;18.18;91.85;100878.75;5030108;28;20029;-68
2022/05/26 08:04:17;;;;;;;6.47;6.18;;;;;;;18.28;90.53;100874.75;5029967;28;20701;-69
2022/05/26 08:06:47;;;;;;;7.47;7.18;;;;;;;18.07;91.00;100887.50;5018188;28;20025;-69
2022/05/26 08:09:16;;;;;;;6.97;6.68;;;;;;;18.16;91.14;100883.53;5027146;28;20041;-68
2022/05/26 08:11:42;;;;;;;6.90;6.60;;;;;;;18.02;91.30;100891.88;5039613;28;20020;-68
2022/05/26 08:14:08;;;;;;;6.82;6.53;;;;;;;18.30;90.75;100892.31;5043886;28;20036;-69
2022/05/26 08:16:34;;;;;;;7.25;6.95;;;;;;;18.30;89.78;100892.31;5031176;28;20150;-69
2022/05/26 08:18:59;;;;;;;7.13;6.82;;;;;;;18.92;86.36;100890.63;5031473;28;20104;-69
2022/05/26 08:21:25;;;;;;;7.00;6.70;;;;;;;20.18;79.94;100905.34;5027697;28;20029;-70
2022/05/26 08:23:53;;;;;;;6.95;6.65;;;;;;;20.22;79.28;100898.47;5044919;28;20065;-70
2022/05/26 08:26:20;;;;;;;6.97;6.68;;;;;;;20.84;75.65;100895.44;5028968;28;20079;-70
2022/05/26 08:28:46;;;;;;;7.00;6.70;;;;;;;21.48;73.76;100899.91;5042892;28;20030;-70
2022/05/26 08:31:15;;;;;;;6.70;6.40;;;;;;;20.56;74.60;100890.72;5025060;28;20454;-70
2022/05/26 08:33:42;;;;;;;6.75;6.45;;;;;;;20.12;76.64;100888.25;5012812;28;20034;-70
2022/05/26 08:36:10;;;;;;;6.95;6.65;;;;;;;19.83;76.71;100891.72;5024449;28;20040;-71
2022/05/26 08:38:36;;;;;;;7.13;6.82;;;;;;;20.32;75.44;100898.72;5028304;28;20026;-71
2022/05/26 08:41:04;;;;;;;6.90;6.60;;;;;;;20.45;74.51;100896.91;5029396;28;20029;-71
2022/05/26 08:43:37;;;;;;;6.78;6.47;;;;;;;20.66;73.60;100893.69;5028003;28;20053;-67
2022/05/26 08:46:06;;;;;;;7.45;7.15;;;;;;;21.15;72.03;100900.53;5029596;28;20043;-68
2022/05/26 08:48:50;;;;;;;7.60;7.30;;;;;;;20.85;72.61;100900.59;5029269;28;20536;-69
2022/05/26 08:51:39;;;;;;;6.80;6.50;;;;;;;20.72;71.83;100903.53;5036254;28;20033;-68
2022/05/26 08:54:10;;;;;;;7.00;6.70;;;;;;;21.23;70.03;100902.03;5036424;28;20324;-69
2022/05/26 08:56:35;;;;;;;7.00;6.70;;;;;;;22.02;68.17;100913.94;5035500;28;20107;-70
2022/05/26 08:59:09;;;;;;;7.63;7.32;;;;;;;22.17;67.24;100915.34;5029376;28;20032;-69
2022/05/26 09:01:36;;;;;;;6.80;6.50;;;;;;;22.06;66.44;100915.13;5028491;28;20064;-70
2022/05/26 09:04:01;;;;;;;7.28;6.97;;;;;;;21.97;66.25;100908.47;5033429;28;20033;-69
2022/05/26 09:06:29;;;;;;;7.22;6.93;;;;;;;21.88;66.04;100919.88;5032202;28;20028;-69
2022/05/26 09:14:25;;;;;;;7.00;6.70;;;;;;;22.52;63.74;100915.16;5037512;28;20052;-70
2022/05/26 09:17:06;;;;;;;6.82;6.53;;;;;;;22.89;61.96;100910.94;5030329;28;20025;-68
2022/05/26 09:19:55;;;;;;;7.43;7.13;;;;;;;22.99;59.88;100891.34;5019511;28;20029;-70
2022/05/26 09:22:40;;;;;;;7.03;6.72;;;;;;;23.60;57.74;100905.75;5036797;28;20484;-70
2022/05/26 09:25:12;;;;;;;6.97;6.68;;;;;;;23.19;56.93;100915.16;5041197;28;20027;-71
2022/05/26 09:27:38;;;;;;;7.20;6.90;;;;;;;23.94;54.98;100889.34;5036904;28;20052;-71
2022/05/26 09:30:26;;;;;;;7.28;6.97;;;;;;;23.47;57.18;100908.78;5025767;28;20403;-66
2022/05/26 09:32:52;;;;;;;7.38;7.07;;;;;;;23.69;56.66;100916.97;5040078;28;20500;-67
2022/05/26 09:35:22;;;;;;;7.10;6.80;;;;;;;23.14;56.80;100915.94;5042328;28;21540;-67
2022/05/26 09:37:54;;;;;;;6.97;6.68;;;;;;;23.54;56.65;100914.03;5029171;28;20110;-68
2022/05/26 09:40:27;;;;;;;6.88;6.57;;;;;;;22.65;58.56;100911.34;5036594;28;20087;-68
2022/05/26 09:43:04;;;;;;;6.95;6.65;;;;;;;23.05;57.27;100914.69;5033347;28;20185;-66
2022/05/26 09:45:48;;;;;;;6.90;6.60;;;;;;;23.17;56.65;100903.78;5020967;28;20037;-64
2022/05/26 09:48:18;;;;;;;6.80;6.50;;;;;;;23.62;55.40;100905.50;5033610;28;20063;-64
2022/05/26 09:50:49;;;;;;;7.20;6.90;;;;;;;23.84;55.22;100908.19;5030543;28;20036;-64
2022/05/26 09:53:27;;;;;;;6.93;6.63;;;;;;;24.07;54.09;100901.66;5030693;28;20097;-64
2022/05/26 09:55:55;;;;;;;6.68;6.38;;;;;;;23.67;55.51;100905.56;5030686;28;20037;-64
2022/05/26 09:58:34;;;;;;;6.90;6.60;;;;;;;23.19;56.21;100901.63;5022050;28;20037;-64
2022/05/26 10:01:26;;;;;;;7.10;6.80;;;;;;;23.23;54.57;100900.09;5022604;28;20389;-64
2022/05/26 10:03:54;;;;;;;7.03;6.72;;;;;;;23.01;55.20;100893.81;5029996;28;20120;-64
2022/05/26 10:06:26;;;;;;;7.72;7.43;;;;;;;23.06;55.15;100883.88;5020384;28;20400;-66
2022/05/26 10:09:12;;;;;;;7.40;7.10;;;;;;;22.67;55.77;100877.56;5025020;28;20033;-67
2022/05/26 10:12:04;;;;;;;6.93;6.63;;;;;;;22.99;56.58;100885.09;5026995;28;20026;-65
2022/05/26 10:14:54;;;;;;;7.10;6.80;;;;;;;23.01;54.39;100880.28;5029296;28;20064;-67
2022/05/26 10:17:43;;;;;;;6.70;6.40;;;;;;;22.64;54.14;100872.66;5031883;28;20029;-65
2022/05/26 10:20:11;;;;;;;6.57;6.28;;;;;;;22.60;54.25;100879.59;5023904;28;20029;-63
2022/05/26 10:23:09;;;;;;;6.80;6.50;;;;;;;22.27;54.13;100883.13;5030235;28;20090;-64
2022/05/26 10:25:52;;;;;;;6.60;6.30;;;;;;;22.59;54.31;100875.25;5022856;28;20124;-64
2022/05/26 10:28:45;;;;;;;6.53;6.22;;;;;;;22.46;54.68;100881.81;5031056;28;20400;-63
2022/05/26 10:31:25;;;;;;;6.80;6.50;;;;;;;22.07;55.37;100884.34;5031186;28;20021;-63
2022/05/26 10:34:14;;;;;;;7.03;6.72;;;;;;;22.63;54.85;100881.84;5029887;28;20029;-64
2022/05/26 10:37:01;;;;;;;6.53;6.22;;;;;;;22.16;54.68;100889.38;5024903;28;20501;-64
2022/05/26 10:39:53;;;;;;;6.70;6.40;;;;;;;22.55;54.19;100887.66;5031026;28;20029;-64
2022/05/26 10:42:28;;;;;;;6.55;6.25;;;;;;;22.53;54.29;100887.88;5028165;28;20112;-64
2022/05/26 10:45:20;;;;;;;6.50;6.20;;;;;;;22.40;55.76;100895.47;5019249;28;20045;-64
2022/05/26 10:47:53;;;;;;;6.50;6.20;;;;;;;22.59;55.27;100899.59;5029851;28;20080;-64
2022/05/26 10:50:30;;;;;;;6.28;6.07;;;;;;;22.48;55.35;100893.22;5031255;28;20543;-64
2022/05/26 10:53:08;;;;;;;6.60;6.30;;;;;;;22.41;55.74;100889.03;5033622;28;20386;-64
2022/05/26 10:55:40;;;;;;;6.82;6.53;;;;;;;22.41;56.46;100889.03;5015879;28;20105;-64
2022/05/26 10:58:16;;;;;;;6.70;6.40;;;;;;;22.98;54.93;100891.59;5034273;28;20029;-63
2022/05/26 11:00:48;;;;;;;6.80;6.50;;;;;;;22.73;55.08;100889.28;5034549;28;20083;-64
2022/05/26 11:03:31;;;;;;;6.70;6.40;;;;;;;22.80;54.15;100881.81;5036090;28;20029;-64
2022/05/26 11:06:31;;;;;;;6.60;6.30;;;;;;;22.74;52.95;100888.22;5039335;28;20112;-64
2022/05/26 11:09:07;;;;;;;6.68;6.38;;;;;;;22.96;52.45;100899.13;5013785;28;20052;-64
2022/05/26 11:11:54;;;;;;;6.95;6.65;;;;;;;23.21;51.94;100894.09;5028702;28;20037;-66
2022/05/26 11:18:04;;;;;;;6.80;6.50;;;;;;;23.77;51.08;100877.78;5029320;28;20028;-65
2022/05/26 11:20:47;;;;;;;7.10;6.80;;;;;;;23.18;51.88;100872.94;5032168;28;20517;-66
2022/05/26 11:23:17;;;;;;;7.00;6.70;;;;;;;23.13;50.93;100881.78;5027930;28;20034;-66
2022/05/26 11:25:50;;;;;;;6.85;6.55;;;;;;;23.25;50.39;100879.00;5016837;28;20029;-66
2022/05/26 11:28:49;;;;;;;6.90;6.60;;;;;;;23.47;49.91;100876.31;5027818;28;20440;-66
2022/05/26 11:37:28;;;;;;;6.78;6.47;;;;;;;23.48;48.36;100871.69;5037932;28;20090;-68
2022/05/26 11:39:58;;;;;;;7.13;6.82;;;;;;;23.59;47.04;100873.47;5028518;28;20516;-65
2022/05/26 11:42:34;;;;;;;7.07;6.78;;;;;;;23.94;46.92;100870.38;5032014;28;20029;-66
2022/05/26 11:45:14;;;;;;;7.00;6.70;;;;;;;23.68;46.06;100871.97;5033382;28;20049;-67
2022/05/26 11:48:27;;;;;;;6.93;6.63;;;;;;;23.58;45.53;100858.31;5031504;28;20411;-67
2022/05/26 11:50:57;;;;;;;6.90;6.60;;;;;;;24.05;44.79;100872.13;5033080;28;20099;-66
2022/05/26 11:53:35;;;;;;;7.07;6.78;;;;;;;23.71;43.87;100855.22;5033697;28;20104;-67
2022/05/26 11:56:27;;;;;;;6.90;6.60;;;;;;;23.91;43.37;100860.88;5031478;28;20041;-67
2022/05/26 11:59:32;;;;;;;7.20;6.90;;;;;;;23.76;43.74;100852.56;5028419;28;20029;-69
2022/05/26 12:02:00;;;;;;;7.18;6.88;;;;;;;23.99;42.56;100857.69;5034410;28;20060;-66
2022/05/26 12:04:30;;;;;;;7.07;6.78;;;;;;;23.75;42.47;100858.25;5028611;28;20033;-66
2022/05/26 12:06:56;;;;;;;6.80;6.50;;;;;;;23.63;42.71;100852.97;5028482;28;20029;-67
2022/05/26 12:09:31;;;;;;;7.20;6.90;;;;;;;23.98;42.79;100855.25;5038220;28;20128;-67
2022/05/26 12:12:03;;;;;;;6.90;6.60;;;;;;;24.04;42.22;100862.34;5035918;28;20033;-66
2022/05/26 12:14:47;;;;;;;7.45;7.15;;;;;;;23.87;41.04;100865.16;5044880;28;20028;-66
2022/05/26 12:17:48;;;;;;;7.05;6.75;;;;;;;23.97;40.75;100864.44;5026766;28;20104;-67
2022/05/26 12:20:14;;;;;;;7.10;6.80;;;;;;;24.00;41.30;100855.78;5022183;28;20083;-67
2022/05/26 12:22:55;;;;;;;7.05;6.75;;;;;;;24.14;41.04;100843.47;5030670;28;20791;-67
2022/05/26 12:25:33;;;;;;;7.00;6.70;;;;;;;24.04;41.80;100843.38;5027604;28;20029;-64
2022/05/26 12:28:00;;;;;;;6.95;6.65;;;;;;;23.81;42.17;100855.34;5023259;28;20026;-69